Time;durP1;ratioP1;P1;durP2;ratioP2;P2;SDS_P1;SDS_P2;PMS_P1;PMS_P2;Temp;Humidity;BMP_temperature;BMP_pressure;BME280_temperature;BME280_humidity;BME280_pressure;Samples;Min_cycle;Max_cycle;Signal;HPM_P1;HPM_P2
2022/09/26 00:01:15;;;;;;;2.33;1.10;;;17.30;84.00;;;;;;5008249;28;20033;-76
2022/09/26 00:03:46;;;;;;;2.05;0.95;;;17.30;83.20;;;;;;5026367;28;20104;-77
2022/09/26 00:06:12;;;;;;;3.95;1.08;;;17.40;83.30;;;;;;5026331;28;20053;-77
2022/09/26 00:08:39;;;;;;;4.18;1.00;;;17.40;83.30;;;;;;5026762;28;20034;-77
2022/09/26 00:11:07;;;;;;;3.00;1.00;;;17.40;83.10;;;;;;5025743;28;20057;-76
2022/09/26 00:13:35;;;;;;;3.75;1.25;;;17.40;83.00;;;;;;5013871;28;20120;-76
2022/09/26 00:16:01;;;;;;;1.77;0.85;;;17.40;83.00;;;;;;5027098;28;20095;-77
2022/09/26 00:18:27;;;;;;;3.88;1.38;;;17.40;83.10;;;;;;5026115;28;20041;-76
2022/09/26 00:20:53;;;;;;;3.10;0.80;;;17.30;83.00;;;;;;5025435;28;20091;-76
2022/09/26 00:23:18;;;;;;;2.03;0.85;;;17.30;83.20;;;;;;5041547;28;20060;-77
2022/09/26 00:25:45;;;;;;;2.65;0.90;;;17.40;83.30;;;;;;5045532;28;20036;-77
2022/09/26 00:28:11;;;;;;;3.28;1.10;;;17.30;83.20;;;;;;5024756;28;20374;-77
2022/09/26 00:30:36;;;;;;;3.00;1.00;;;17.20;83.20;;;;;;5024732;28;20030;-76
2022/09/26 00:33:02;;;;;;;3.47;0.95;;;17.30;83.20;;;;;;5024265;28;20033;-76
2022/09/26 00:35:29;;;;;;;1.88;0.90;;;17.30;83.40;;;;;;5025017;28;20754;-79
2022/09/26 00:37:54;;;;;;;2.60;1.00;;;17.30;83.30;;;;;;5024833;28;20451;-77
2022/09/26 00:40:25;;;;;;;2.78;1.00;;;17.30;83.30;;;;;;5027844;28;20123;-76
2022/09/26 00:42:51;;;;;;;3.88;1.20;;;17.30;83.30;;;;;;5027251;28;20021;-76
2022/09/26 00:45:17;;;;;;;3.30;1.00;;;17.30;83.30;;;;;;5045444;28;20032;-75
2022/09/26 00:48:09;;;;;;;2.95;1.00;;;17.30;83.20;;;;;;5027460;28;20017;-76
2022/09/26 00:50:39;;;;;;;2.58;1.08;;;17.30;83.30;;;;;;5037003;28;20041;-77
2022/09/26 00:53:16;;;;;;;2.15;0.90;;;17.30;83.20;;;;;;5045079;28;20056;-75
2022/09/26 00:55:47;;;;;;;2.67;0.90;;;17.30;83.20;;;;;;5045651;28;20051;-79
2022/09/26 00:58:19;;;;;;;1.98;0.95;;;17.20;83.40;;;;;;5027561;28;20769;-77
2022/09/26 01:00:46;;;;;;;4.28;1.05;;;17.30;83.20;;;;;;5045327;28;20037;-77
2022/09/26 01:03:14;;;;;;;2.05;0.80;;;17.30;83.10;;;;;;5026884;28;20392;-78
2022/09/26 01:05:40;;;;;;;2.70;0.90;;;17.30;83.10;;;;;;5027546;28;20039;-77
2022/09/26 01:08:06;;;;;;;2.47;0.90;;;17.30;83.10;;;;;;5027241;28;20021;-76
2022/09/26 01:10:35;;;;;;;2.25;0.80;;;17.30;82.90;;;;;;5045407;28;20064;-76
2022/09/26 01:13:01;;;;;;;2.15;0.90;;;17.40;82.80;;;;;;5044725;28;20079;-75
2022/09/26 01:15:27;;;;;;;2.70;1.00;;;17.30;82.80;;;;;;5045419;28;20083;-76
2022/09/26 01:17:54;;;;;;;3.75;1.00;;;17.30;82.90;;;;;;5045457;28;20021;-75
2022/09/26 01:20:27;;;;;;;2.22;1.02;;;17.30;83.40;;;;;;5044974;28;20055;-77
2022/09/26 01:23:21;;;;;;;2.50;1.20;;;17.30;83.00;;;;;;5027165;28;20047;-76
2022/09/26 01:26:05;;;;;;;2.58;0.98;;;17.30;83.00;;;;;;5027316;28;20028;-76
2022/09/26 01:28:41;;;;;;;3.88;1.05;;;17.30;82.90;;;;;;5026951;28;20508;-77
2022/09/26 01:31:33;;;;;;;3.33;1.10;;;17.30;83.00;;;;;;5045168;28;20488;-77
2022/09/26 01:34:05;;;;;;;2.47;1.00;;;17.30;83.00;;;;;;5049343;28;20025;-77
2022/09/26 01:36:45;;;;;;;1.52;0.80;;;17.30;83.00;;;;;;5049096;28;20055;-79
2022/09/26 01:39:27;;;;;;;2.88;1.15;;;17.30;83.10;;;;;;5031249;28;20059;-76
2022/09/26 01:42:14;;;;;;;1.88;0.90;;;17.30;83.00;;;;;;5030766;28;20041;-77
2022/09/26 01:45:03;;;;;;;1.70;0.90;;;17.30;83.10;;;;;;5048826;28;20029;-76
2022/09/26 01:47:53;;;;;;;2.45;0.90;;;17.20;82.90;;;;;;5031345;28;20024;-77
2022/09/26 01:50:33;;;;;;;2.50;1.00;;;17.20;82.90;;;;;;5040881;28;20058;-77
2022/09/26 01:53:10;;;;;;;3.05;1.23;;;17.20;83.00;;;;;;5030540;28;20412;-77
2022/09/26 01:55:40;;;;;;;1.58;0.90;;;17.30;83.30;;;;;;5030787;28;20060;-75
2022/09/26 01:58:19;;;;;;;2.63;1.10;;;17.30;83.30;;;;;;5048598;28;20511;-77
2022/09/26 02:00:47;;;;;;;2.47;0.90;;;17.30;83.00;;;;;;5048556;28;20029;-78
2022/09/26 02:03:18;;;;;;;1.70;0.82;;;17.20;82.90;;;;;;5048132;28;20108;-75
2022/09/26 02:05:52;;;;;;;2.60;0.90;;;17.30;83.00;;;;;;5030451;28;20033;-76
2022/09/26 02:11:44;;;;;;;1.90;1.00;;;17.30;83.00;;;;;;5039104;28;20809;-76
2022/09/26 02:14:15;;;;;;;1.50;0.80;;;17.30;82.90;;;;;;5043674;28;20025;-76
2022/09/26 02:16:46;;;;;;;2.72;0.90;;;17.30;82.90;;;;;;5048187;28;20025;-77
2022/09/26 02:19:42;;;;;;;2.58;0.80;;;17.20;82.90;;;;;;5048697;28;20065;-79
2022/09/26 02:22:07;;;;;;;2.95;1.08;;;17.30;83.00;;;;;;5035569;28;20045;-76
2022/09/26 02:24:33;;;;;;;1.85;0.90;;;17.30;82.90;;;;;;5048190;28;20021;-75
2022/09/26 02:26:58;;;;;;;1.92;0.77;;;17.30;82.80;;;;;;5046779;28;20028;-76
2022/09/26 02:29:25;;;;;;;3.50;0.98;;;17.20;82.80;;;;;;5048681;28;20407;-78
2022/09/26 02:31:55;;;;;;;2.67;1.00;;;17.30;82.90;;;;;;5047720;28;20052;-76
2022/09/26 02:34:21;;;;;;;3.22;0.93;;;17.30;82.90;;;;;;5046582;28;20025;-77
2022/09/26 02:36:47;;;;;;;3.50;1.20;;;17.20;82.90;;;;;;5047958;28;20032;-79
2022/09/26 02:39:13;;;;;;;2.95;1.20;;;17.20;82.90;;;;;;5048473;28;20036;-77
2022/09/26 02:42:06;;;;;;;2.17;1.00;;;17.20;82.90;;;;;;5046189;28;20028;-76
2022/09/26 02:44:57;;;;;;;2.90;1.10;;;17.20;82.90;;;;;;5047617;28;20028;-76
2022/09/26 02:48:04;;;;;;;2.45;1.02;;;17.20;82.90;;;;;;5047603;28;20032;-77
2022/09/26 02:50:38;;;;;;;1.95;1.00;;;17.20;82.90;;;;;;5021509;28;20033;-76
2022/09/26 02:53:25;;;;;;;2.00;0.90;;;17.20;82.90;;;;;;5046799;28;20070;-77
2022/09/26 02:56:08;;;;;;;1.73;0.90;;;17.20;83.20;;;;;;5058990;28;20067;-76
2022/09/26 02:59:00;;;;;;;2.65;0.98;;;17.20;83.10;;;;;;5049388;28;20059;-76
2022/09/26 03:01:59;;;;;;;2.30;0.93;;;17.30;83.00;;;;;;5066882;28;20040;-76
2022/09/26 03:04:49;;;;;;;2.03;0.80;;;17.30;82.90;;;;;;5067265;28;20101;-76
2022/09/26 03:07:21;;;;;;;;;;;17.30;82.80;;;;;;5067942;28;20032;-75
2022/09/26 03:09:49;;;;;;;4.72;1.60;;;17.30;82.70;;;;;;5049303;28;19931;-76
2022/09/26 03:12:17;;;;;;;2.42;1.10;;;17.20;82.80;;;;;;5058843;28;20396;-75
2022/09/26 03:14:44;;;;;;;2.60;1.20;;;17.30;82.90;;;;;;5047003;28;20674;-76
2022/09/26 03:17:10;;;;;;;2.58;1.15;;;17.20;82.80;;;;;;5029532;28;20548;-76
2022/09/26 03:19:47;;;;;;;2.10;1.00;;;17.20;82.70;;;;;;5047033;28;20049;-77
2022/09/26 03:22:15;;;;;;;1.65;1.10;;;17.30;82.80;;;;;;5029259;28;20017;-79
2022/09/26 03:24:42;;;;;;;2.50;1.17;;;17.20;82.70;;;;;;5048589;28;20029;-78
2022/09/26 03:27:11;;;;;;;2.50;1.05;;;17.20;82.70;;;;;;5050436;28;20067;-79
2022/09/26 03:29:37;;;;;;;2.30;1.20;;;17.20;82.80;;;;;;5050336;28;20036;-79
2022/09/26 03:32:04;;;;;;;2.88;1.20;;;17.20;82.80;;;;;;5031456;28;20049;-79
2022/09/26 03:34:29;;;;;;;1.60;1.02;;;17.20;82.80;;;;;;5032097;28;20032;-79
2022/09/26 03:36:55;;;;;;;1.38;1.00;;;17.20;82.80;;;;;;5031951;28;20025;-79
2022/09/26 03:39:20;;;;;;;2.38;1.20;;;17.20;82.80;;;;;;5049491;28;20029;-78
2022/09/26 03:41:46;;;;;;;2.08;1.00;;;17.20;83.40;;;;;;5048964;28;20404;-78
2022/09/26 03:44:12;;;;;;;2.63;1.10;;;17.20;82.90;;;;;;5049057;28;20045;-79
2022/09/26 03:46:38;;;;;;;2.45;1.10;;;17.20;82.90;;;;;;5031131;28;20507;-77
2022/09/26 03:49:03;;;;;;;1.77;1.10;;;17.20;82.90;;;;;;5029172;28;20029;-79
2022/09/26 03:51:28;;;;;;;2.22;1.05;;;17.20;83.00;;;;;;5025756;28;20444;-78
2022/09/26 03:53:55;;;;;;;2.40;1.20;;;17.20;83.10;;;;;;5028580;28;20075;-79
2022/09/26 03:56:20;;;;;;;2.85;1.10;;;17.20;83.10;;;;;;5026673;28;20036;-79
2022/09/26 03:58:50;;;;;;;2.65;0.90;;;17.20;82.90;;;;;;5026391;28;20030;-78
2022/09/26 04:01:18;;;;;;;2.53;1.02;;;17.20;82.80;;;;;;5026590;28;20496;-78
2022/09/26 04:03:45;;;;;;;2.70;1.00;;;17.20;82.70;;;;;;5047739;28;20029;-77
2022/09/26 04:06:12;;;;;;;2.10;1.20;;;17.20;82.60;;;;;;5046311;28;20039;-77
2022/09/26 04:08:39;;;;;;;2.97;1.10;;;17.20;82.60;;;;;;5046805;28;20035;-77
2022/09/26 04:11:08;;;;;;;1.73;1.05;;;17.20;82.70;;;;;;5045672;28;20090;-79
2022/09/26 04:13:34;;;;;;;2.35;1.00;;;17.30;82.80;;;;;;5046042;28;20032;-78
2022/09/26 04:16:00;;;;;;;2.80;1.20;;;17.20;82.70;;;;;;5038320;28;20390;-78
2022/09/26 04:18:27;;;;;;;3.10;1.10;;;17.20;82.80;;;;;;5047632;28;20082;-77
2022/09/26 04:21:14;;;;;;;2.05;1.20;;;17.20;82.70;;;;;;5029937;28;20031;-78
2022/09/26 04:23:42;;;;;;;2.30;1.00;;;17.20;82.60;;;;;;5047055;28;20021;-79
2022/09/26 04:26:16;;;;;;;4.10;1.20;;;17.20;82.70;;;;;;5044047;28;20032;-78
2022/09/26 04:28:43;;;;;;;2.92;1.30;;;17.20;82.80;;;;;;5043601;28;20092;-79
2022/09/26 04:31:09;;;;;;;2.10;1.10;;;17.20;82.80;;;;;;5028345;28;20082;-78
2022/09/26 04:33:38;;;;;;;2.83;1.02;;;17.10;82.70;;;;;;5027255;28;20044;-77
2022/09/26 04:36:06;;;;;;;2.70;1.33;;;17.20;82.70;;;;;;5028195;28;20041;-79
2022/09/26 04:38:32;;;;;;;3.03;1.10;;;17.10;82.70;;;;;;5046053;28;20021;-79
2022/09/26 04:41:09;;;;;;;1.85;1.10;;;17.20;82.80;;;;;;5027600;28;20063;-79
2022/09/26 04:43:35;;;;;;;2.15;1.20;;;17.20;82.80;;;;;;5045898;28;20032;-77
2022/09/26 04:46:06;;;;;;;2.20;1.13;;;17.20;82.80;;;;;;5041663;28;20025;-79
2022/09/26 04:48:32;;;;;;;2.47;1.10;;;17.20;82.80;;;;;;5018575;28;20074;-80
2022/09/26 04:50:57;;;;;;;2.33;1.10;;;17.10;82.80;;;;;;5047025;28;20560;-78
2022/09/26 04:53:23;;;;;;;2.75;1.23;;;17.20;82.90;;;;;;5021329;28;20016;-78
2022/09/26 04:55:49;;;;;;;1.77;0.98;;;17.20;83.00;;;;;;5016457;28;20033;-78
2022/09/26 04:58:15;;;;;;;2.60;1.00;;;17.20;82.90;;;;;;5041554;28;20112;-79
2022/09/26 05:00:46;;;;;;;1.92;0.93;;;17.20;82.80;;;;;;5034885;28;20081;-78
2022/09/26 05:03:12;;;;;;;1.67;1.00;;;17.20;82.70;;;;;;5045086;28;20017;-77
2022/09/26 05:05:40;;;;;;;2.42;1.00;;;17.20;82.60;;;;;;5024170;28;20124;-77
2022/09/26 05:08:06;;;;;;;2.00;1.10;;;17.20;82.50;;;;;;5025676;28;20032;-78
2022/09/26 05:10:32;;;;;;;2.78;1.30;;;17.20;82.60;;;;;;5045140;28;20539;-77
2022/09/26 05:12:58;;;;;;;2.17;1.10;;;17.20;82.70;;;;;;5027628;28;20120;-79
2022/09/26 05:15:24;;;;;;;2.15;1.00;;;17.20;82.70;;;;;;5024329;28;20035;-77
2022/09/26 05:17:56;;;;;;;2.42;1.38;;;17.20;82.60;;;;;;5032996;28;20120;-75
2022/09/26 05:20:22;;;;;;;2.17;1.00;;;17.20;82.60;;;;;;5028506;28;20025;-79
2022/09/26 05:22:48;;;;;;;2.53;1.30;;;17.10;82.60;;;;;;5015890;28;20029;-76
2022/09/26 05:27:58;;;;;;;2.85;1.35;;;17.20;82.70;;;;;;5036662;28;20097;-76
2022/09/26 05:30:29;;;;;;;2.00;1.00;;;17.20;82.70;;;;;;5043015;28;20043;-76
2022/09/26 05:32:57;;;;;;;2.05;1.23;;;17.20;82.80;;;;;;5044376;28;20053;-78
2022/09/26 05:35:22;;;;;;;3.03;1.40;;;17.20;82.80;;;;;;5044980;28;20029;-77
2022/09/26 05:37:48;;;;;;;2.85;1.30;;;17.10;82.70;;;;;;5026857;28;20994;-76
2022/09/26 05:43:02;;;;;;;2.45;1.30;;;17.10;82.80;;;;;;5043667;28;20217;-76
2022/09/26 05:45:30;;;;;;;3.40;1.20;;;17.10;82.80;;;;;;5025019;28;20021;-79
2022/09/26 05:47:55;;;;;;;1.70;1.05;;;17.10;82.70;;;;;;5024099;28;20091;-75
2022/09/26 05:50:23;;;;;;;1.90;1.17;;;17.20;82.80;;;;;;5024060;28;20037;-79
2022/09/26 05:52:49;;;;;;;2.10;1.10;;;17.20;82.80;;;;;;5023896;28;20021;-77
2022/09/26 05:55:15;;;;;;;2.10;1.02;;;17.10;82.80;;;;;;5023921;28;20412;-78
2022/09/26 05:57:58;;;;;;;2.45;1.00;;;17.20;82.70;;;;;;5042869;28;20029;-78
2022/09/26 06:00:25;;;;;;;1.80;0.93;;;17.20;82.70;;;;;;5024875;28;20071;-78
2022/09/26 06:02:55;;;;;;;2.30;1.05;;;17.20;82.50;;;;;;5026298;28;20029;-76
2022/09/26 06:05:22;;;;;;;2.45;1.10;;;17.20;82.50;;;;;;5044444;28;20120;-76
2022/09/26 06:07:47;;;;;;;3.03;1.08;;;17.20;82.40;;;;;;5026014;28;20029;-77
2022/09/26 06:10:13;;;;;;;1.60;1.00;;;17.20;82.40;;;;;;5044703;28;20033;-76
2022/09/26 06:12:38;;;;;;;2.30;1.17;;;17.20;82.50;;;;;;5026483;28;20079;-75
2022/09/26 06:15:05;;;;;;;3.53;1.40;;;17.20;82.50;;;;;;5026575;28;20075;-75
2022/09/26 06:17:31;;;;;;;3.13;1.40;;;17.20;82.20;;;;;;5026563;28;20447;-75
2022/09/26 06:19:56;;;;;;;4.45;1.88;;;17.20;82.10;;;;;;5028916;28;20447;-75
2022/09/26 06:22:23;;;;;;;4.05;1.50;;;17.20;82.10;;;;;;5047250;28;20029;-77
2022/09/26 06:24:48;;;;;;;3.65;1.27;;;17.20;82.10;;;;;;5029946;28;20568;-77
2022/09/26 06:27:14;;;;;;;4.15;1.42;;;17.10;82.10;;;;;;5029920;28;20115;-76
2022/09/26 06:29:39;;;;;;;3.38;1.50;;;17.20;82.00;;;;;;5047630;28;20032;-76
2022/09/26 06:32:05;;;;;;;4.15;1.40;;;17.20;82.10;;;;;;5047057;28;20759;-76
2022/09/26 06:34:30;;;;;;;3.72;1.38;;;17.20;82.00;;;;;;5046823;28;20029;-75
2022/09/26 06:36:57;;;;;;;3.00;1.30;;;17.20;82.00;;;;;;5047204;28;20029;-75
2022/09/26 06:39:29;;;;;;;5.13;1.30;;;17.20;82.00;;;;;;5048066;28;20473;-75
2022/09/26 06:41:55;;;;;;;3.63;1.38;;;17.20;82.00;;;;;;5029202;28;20064;-75
2022/09/26 06:44:22;;;;;;;4.90;1.55;;;17.20;82.10;;;;;;5029653;28;20444;-77
2022/09/26 06:46:48;;;;;;;2.22;1.20;;;17.20;82.00;;;;;;5048049;28;20055;-74
2022/09/26 06:49:13;;;;;;;2.65;1.30;;;17.20;82.10;;;;;;5047761;28;20052;-76
2022/09/26 06:51:39;;;;;;;5.03;1.40;;;17.20;82.10;;;;;;5029371;28;20115;-76
2022/09/26 06:54:04;;;;;;;2.40;1.27;;;17.20;82.10;;;;;;5047587;28;20413;-76
2022/09/26 06:56:30;;;;;;;3.08;1.50;;;17.20;82.10;;;;;;5029188;28;20025;-74
2022/09/26 06:58:56;;;;;;;2.33;1.30;;;17.20;82.00;;;;;;5047396;28;20092;-75
2022/09/26 07:01:21;;;;;;;2.53;1.80;;;17.30;81.90;;;;;;5029218;28;20029;-75
2022/09/26 07:03:47;;;;;;;5.22;1.75;;;17.30;81.60;;;;;;5028582;28;20021;-76
2022/09/26 07:06:13;;;;;;;3.33;1.50;;;17.20;81.60;;;;;;5029627;28;20037;-75
2022/09/26 07:08:39;;;;;;;3.55;1.58;;;17.30;81.70;;;;;;5029586;28;20396;-75
2022/09/26 07:11:04;;;;;;;3.72;1.83;;;17.30;81.70;;;;;;5047361;28;20489;-75
2022/09/26 07:13:30;;;;;;;3.33;1.50;;;17.20;81.50;;;;;;5028492;28;20028;-75
2022/09/26 07:15:59;;;;;;;2.53;1.60;;;17.30;81.90;;;;;;5029089;28;20381;-76
2022/09/26 07:18:25;;;;;;;4.55;1.50;;;17.30;81.80;;;;;;5028839;28;20041;-78
2022/09/26 07:20:52;;;;;;;3.00;1.27;;;17.30;81.80;;;;;;5026706;28;20035;-76
2022/09/26 07:23:17;;;;;;;2.92;1.75;;;17.30;82.30;;;;;;5044869;28;20096;-77
2022/09/26 07:25:45;;;;;;;3.05;1.50;;;17.30;81.80;;;;;;5028056;28;20543;-76
2022/09/26 07:28:11;;;;;;;4.82;1.45;;;17.30;81.80;;;;;;5025988;28;20022;-77
2022/09/26 07:30:36;;;;;;;2.70;1.40;;;17.30;81.90;;;;;;5043947;28;20428;-75
2022/09/26 07:33:03;;;;;;;3.17;1.33;;;17.30;81.90;;;;;;5045250;28;20033;-75
2022/09/26 07:35:34;;;;;;;2.88;1.30;;;17.30;81.80;;;;;;5045394;28;20033;-75
2022/09/26 07:38:00;;;;;;;2.25;1.20;;;17.30;81.80;;;;;;5027494;28;20071;-76
2022/09/26 07:51:55;;;;;;;2.85;1.60;;;17.30;81.70;;;;;;5037675;28;20039;-74
2022/09/26 07:54:22;;;;;;;2.80;1.58;;;17.20;81.70;;;;;;5044811;28;20561;-73
2022/09/26 07:56:48;;;;;;;3.03;1.55;;;17.20;81.70;;;;;;5044626;28;20055;-73
2022/09/26 07:59:14;;;;;;;2.80;1.40;;;17.20;81.70;;;;;;5043914;28;20039;-73
2022/09/26 08:01:40;;;;;;;3.08;1.52;;;17.30;81.80;;;;;;5043769;28;20036;-73
2022/09/26 08:04:05;;;;;;;3.47;1.60;;;17.30;81.70;;;;;;5043830;28;20062;-73
2022/09/26 08:06:33;;;;;;;2.67;1.30;;;17.30;81.60;;;;;;5025979;28;20033;-73
2022/09/26 08:08:59;;;;;;;3.63;1.42;;;17.30;81.60;;;;;;5026933;28;20022;-73
2022/09/26 08:11:26;;;;;;;2.55;1.50;;;17.30;81.50;;;;;;5045169;28;20033;-73
2022/09/26 08:13:52;;;;;;;3.25;1.40;;;17.30;81.50;;;;;;5047795;28;20028;-73
2022/09/26 08:16:22;;;;;;;2.03;1.27;;;17.30;81.60;;;;;;5044478;28;20028;-73
2022/09/26 08:18:52;;;;;;;3.22;1.52;;;17.40;81.60;;;;;;5045266;28;20348;-73
2022/09/26 08:21:18;;;;;;;2.35;1.30;;;17.40;81.70;;;;;;5026604;28;20021;-74
2022/09/26 08:23:45;;;;;;;4.07;1.65;;;17.30;81.90;;;;;;5044062;28;20441;-73
2022/09/26 08:26:11;;;;;;;3.10;1.58;;;17.30;81.90;;;;;;5027365;28;20048;-72
2022/09/26 08:28:37;;;;;;;3.13;1.60;;;17.30;81.60;;;;;;5044790;28;20064;-73
2022/09/26 08:31:04;;;;;;;3.05;1.58;;;17.30;81.70;;;;;;5045432;28;20156;-73
2022/09/26 08:33:34;;;;;;;4.63;1.92;;;17.30;81.80;;;;;;5045043;28;20559;-73
2022/09/26 08:36:11;;;;;;;3.63;1.73;;;17.30;81.80;;;;;;5044490;28;20071;-76
2022/09/26 08:38:37;;;;;;;2.60;1.60;;;17.40;81.90;;;;;;5027939;28;20160;-76
2022/09/26 08:41:46;;;;;;;3.83;1.60;;;17.30;81.70;;;;;;5044589;28;20336;-75
2022/09/26 08:44:36;;;;;;;3.03;1.50;;;17.40;81.70;;;;;;5025616;28;20435;-75
2022/09/26 08:47:09;;;;;;;1.95;1.25;;;17.30;81.60;;;;;;5027077;28;20087;-75
2022/09/26 08:49:39;;;;;;;3.30;1.40;;;17.40;81.70;;;;;;5045020;28;20082;-75
2022/09/26 08:52:23;;;;;;;2.50;1.45;;;17.40;81.70;;;;;;5044888;28;20025;-75
2022/09/26 08:54:51;;;;;;;2.67;1.50;;;17.30;81.60;;;;;;5026308;28;20032;-75
2022/09/26 08:57:31;;;;;;;2.75;1.40;;;17.30;81.60;;;;;;5026958;28;20492;-75
2022/09/26 08:59:57;;;;;;;2.58;1.30;;;17.40;81.50;;;;;;5026870;28;20099;-75
2022/09/26 09:03:06;;;;;;;3.03;1.50;;;17.40;81.50;;;;;;5044624;28;20762;-75
2022/09/26 09:05:39;;;;;;;2.58;1.40;;;17.40;81.50;;;;;;5044327;28;20032;-75
2022/09/26 09:08:12;;;;;;;2.42;1.35;;;17.30;81.40;;;;;;5027223;28;20048;-75
2022/09/26 09:10:50;;;;;;;2.38;1.25;;;17.30;81.40;;;;;;5026868;28;20033;-75
2022/09/26 09:13:49;;;;;;;2.75;1.23;;;17.40;81.30;;;;;;5044661;28;20488;-75
2022/09/26 09:16:43;;;;;;;3.17;1.40;;;17.30;81.30;;;;;;5026853;28;20055;-75
2022/09/26 09:19:16;;;;;;;2.60;1.45;;;17.40;81.40;;;;;;5026994;28;20152;-75
2022/09/26 09:22:36;;;;;;;1.88;1.15;;;17.30;81.50;;;;;;5044335;28;20036;-75
2022/09/26 09:25:21;;;;;;;3.00;1.30;;;17.40;81.60;;;;;;4982301;28;20478;-75
2022/09/26 09:28:17;;;;;;;2.60;1.30;;;17.30;81.60;;;;;;5022473;28;20090;-74
2022/09/26 09:30:55;;;;;;;2.25;1.30;;;17.30;81.80;;;;;;5026809;28;20095;-75
2022/09/26 09:33:26;;;;;;;2.65;1.30;;;17.30;81.70;;;;;;5044387;28;20044;-75
2022/09/26 09:36:04;;;;;;;2.33;1.38;;;17.30;81.70;;;;;;5044010;28;20028;-75
2022/09/26 09:38:32;;;;;;;3.15;1.40;;;17.30;81.80;;;;;;5044578;28;20509;-75
2022/09/26 09:41:09;;;;;;;2.60;1.33;;;17.30;81.70;;;;;;5026410;28;20025;-75
2022/09/26 09:43:56;;;;;;;2.78;1.27;;;17.30;81.70;;;;;;5026473;28;20036;-75
2022/09/26 09:46:27;;;;;;;3.10;1.30;;;17.30;81.70;;;;;;5043589;28;20112;-75
2022/09/26 09:49:08;;;;;;;2.67;1.30;;;17.30;81.70;;;;;;5042169;28;20032;-75
2022/09/26 09:52:05;;;;;;;3.47;1.50;;;17.20;81.70;;;;;;5039373;28;20045;-75
2022/09/26 09:55:01;;;;;;;2.38;1.30;;;17.30;81.80;;;;;;5009772;28;20359;-75
2022/09/26 09:57:54;;;;;;;3.30;1.30;;;17.30;81.70;;;;;;5028037;28;20026;-74
2022/09/26 10:00:23;;;;;;;2.08;1.17;;;17.20;81.60;;;;;;5027914;28;20492;-74
2022/09/26 10:03:00;;;;;;;2.33;1.20;;;17.30;81.70;;;;;;5027889;28;20573;-75
2022/09/26 10:05:43;;;;;;;2.67;1.40;;;17.30;81.40;;;;;;5028001;28;20025;-74
2022/09/26 10:08:27;;;;;;;2.65;1.20;;;17.30;81.40;;;;;;5028099;28;20132;-74
2022/09/26 10:11:21;;;;;;;2.63;1.40;;;17.30;81.10;;;;;;5027932;28;20048;-74
2022/09/26 10:13:52;;;;;;;2.35;1.40;;;17.30;81.30;;;;;;5028017;28;20091;-74
2022/09/26 10:16:18;;;;;;;3.03;1.43;;;17.30;81.30;;;;;;5027601;28;20030;-74
2022/09/26 10:19:02;;;;;;;2.17;1.20;;;17.30;81.40;;;;;;5010091;28;20029;-74
2022/09/26 10:21:39;;;;;;;2.10;1.25;;;17.30;81.70;;;;;;5027761;28;20029;-75
2022/09/26 10:24:21;;;;;;;3.30;1.40;;;17.30;81.60;;;;;;5027609;28;20032;-74
2022/09/26 10:26:48;;;;;;;2.10;1.35;;;17.30;81.80;;;;;;5009855;28;20389;-75
2022/09/26 10:29:33;;;;;;;1.92;1.15;;;17.30;81.70;;;;;;5009747;28;20501;-75
2022/09/26 10:31:59;;;;;;;3.15;1.23;;;17.30;81.70;;;;;;5010007;28;20443;-75
2022/09/26 10:34:37;;;;;;;2.88;1.20;;;17.30;81.70;;;;;;5026770;28;20103;-74
2022/09/26 10:37:24;;;;;;;2.47;1.20;;;17.30;81.80;;;;;;5027275;28;20029;-75
2022/09/26 10:42:39;;;;;;;1.88;1.20;;;17.30;81.70;;;;;;5027536;28;20435;-74
2022/09/26 10:45:14;;;;;;;1.52;1.13;;;17.20;81.80;;;;;;5008777;28;20021;-75
2022/09/26 10:47:44;;;;;;;3.03;1.40;;;17.20;81.80;;;;;;5009368;28;20025;-74
2022/09/26 10:50:15;;;;;;;2.60;1.10;;;17.30;81.90;;;;;;5009995;28;20026;-75
2022/09/26 10:53:07;;;;;;;2.35;1.20;;;17.30;81.90;;;;;;5027181;28;20225;-75
2022/09/26 10:55:55;;;;;;;2.55;1.10;;;17.20;81.80;;;;;;5008985;28;20034;-75
2022/09/26 10:58:24;;;;;;;2.05;1.10;;;17.20;81.70;;;;;;5025706;28;20060;-75
2022/09/26 11:00:51;;;;;;;2.58;1.25;;;17.20;81.70;;;;;;5009365;28;20095;-74
2022/09/26 11:03:22;;;;;;;2.63;1.17;;;17.30;81.70;;;;;;5026489;28;20189;-75
2022/09/26 11:05:57;;;;;;;1.58;1.15;;;17.20;81.50;;;;;;5026405;28;20355;-75
2022/09/26 11:08:29;;;;;;;2.67;1.20;;;17.30;81.40;;;;;;5026312;28;20022;-75
2022/09/26 11:10:57;;;;;;;2.83;1.30;;;17.30;81.40;;;;;;5026647;28;20068;-74
2022/09/26 11:13:28;;;;;;;2.25;1.30;;;17.30;81.40;;;;;;5026347;28;20037;-74
2022/09/26 11:16:08;;;;;;;2.50;1.20;;;17.30;81.40;;;;;;5026257;28;20030;-75
2022/09/26 11:18:52;;;;;;;3.13;1.40;;;17.30;81.40;;;;;;5026661;28;20029;-75
2022/09/26 11:21:23;;;;;;;1.95;1.15;;;17.30;81.70;;;;;;5025283;28;20025;-75
2022/09/26 11:24:01;;;;;;;2.08;1.20;;;17.30;81.70;;;;;;5026335;28;20025;-75
2022/09/26 11:27:02;;;;;;;2.83;1.55;;;17.20;81.70;;;;;;5008518;28;20580;-75
2022/09/26 11:29:42;;;;;;;2.53;1.17;;;17.30;81.70;;;;;;5026441;28;20022;-75
2022/09/26 11:32:16;;;;;;;2.53;1.20;;;17.20;81.70;;;;;;5026530;28;20018;-75
2022/09/26 11:34:42;;;;;;;2.05;1.15;;;17.30;81.70;;;;;;5025895;28;20086;-75
2022/09/26 11:37:20;;;;;;;1.60;1.00;;;17.20;81.70;;;;;;5008686;28;20025;-74
2022/09/26 11:40:09;;;;;;;1.73;1.10;;;17.20;81.80;;;;;;5026491;28;20030;-75
2022/09/26 11:42:54;;;;;;;2.08;1.10;;;17.20;82.00;;;;;;5026054;28;20736;-74
2022/09/26 11:45:52;;;;;;;1.98;1.10;;;17.20;81.60;;;;;;5026133;28;20045;-75
2022/09/26 11:48:45;;;;;;;2.85;0.98;;;17.20;81.70;;;;;;5026037;28;20025;-74
2022/09/26 11:51:33;;;;;;;2.35;1.27;;;17.20;81.80;;;;;;5024580;28;20124;-76
2022/09/26 11:54:32;;;;;;;2.28;1.20;;;17.20;81.80;;;;;;5025747;28;20029;-75
2022/09/26 11:57:39;;;;;;;2.20;1.10;;;17.20;81.70;;;;;;5008017;28;20029;-75
2022/09/26 12:00:14;;;;;;;1.40;1.00;;;17.20;81.60;;;;;;5024339;28;20038;-74
2022/09/26 12:02:59;;;;;;;2.40;1.20;;;17.20;81.40;;;;;;5008131;28;20068;-75
2022/09/26 12:05:27;;;;;;;1.75;1.17;;;17.30;81.50;;;;;;5025235;28;20017;-74
2022/09/26 12:08:12;;;;;;;1.73;1.10;;;17.30;81.50;;;;;;5024698;28;20440;-74
2022/09/26 12:10:55;;;;;;;1.92;1.10;;;17.30;81.40;;;;;;5025633;28;20441;-75
2022/09/26 12:13:36;;;;;;;2.53;1.33;;;17.30;81.40;;;;;;5025369;28;20083;-75
2022/09/26 12:16:20;;;;;;;2.35;1.20;;;17.30;81.40;;;;;;5006871;28;20079;-75
2022/09/26 12:18:55;;;;;;;2.47;1.30;;;17.30;81.70;;;;;;5025360;28;20029;-74
2022/09/26 12:21:40;;;;;;;2.05;1.08;;;17.30;81.80;;;;;;5023777;28;20120;-75
2022/09/26 12:24:29;;;;;;;2.30;1.10;;;17.30;82.00;;;;;;5025101;28;20029;-74
2022/09/26 12:27:03;;;;;;;1.90;1.13;;;17.20;81.80;;;;;;5025267;28;20028;-74
2022/09/26 12:29:41;;;;;;;1.83;0.98;;;17.20;82.10;;;;;;5025096;28;20068;-74
2022/09/26 12:32:24;;;;;;;1.85;1.20;;;17.20;82.10;;;;;;5007428;28;20029;-74
2022/09/26 12:35:17;;;;;;;2.67;1.30;;;17.20;81.90;;;;;;5024761;28;20468;-74
2022/09/26 12:37:48;;;;;;;2.47;1.20;;;17.20;82.10;;;;;;5007271;28;20090;-75
2022/09/26 12:40:28;;;;;;;2.50;1.05;;;17.20;82.10;;;;;;5025291;28;20064;-74
2022/09/26 12:43:20;;;;;;;2.15;1.30;;;17.20;82.10;;;;;;5025123;28;20064;-75
2022/09/26 12:46:08;;;;;;;2.60;1.10;;;17.20;82.20;;;;;;5007104;28;20029;-75
2022/09/26 12:48:52;;;;;;;2.53;1.20;;;17.20;82.10;;;;;;5023393;28;20033;-74
2022/09/26 12:51:41;;;;;;;1.73;1.15;;;17.20;82.00;;;;;;5007186;28;20052;-75
2022/09/26 12:54:22;;;;;;;1.98;1.30;;;17.20;82.20;;;;;;5024425;28;20030;-74
2022/09/26 12:57:06;;;;;;;2.53;1.23;;;17.20;81.90;;;;;;5024929;28;20033;-75
2022/09/26 13:00:09;;;;;;;1.77;1.10;;;17.10;81.80;;;;;;5024703;28;20112;-75
2022/09/26 13:02:50;;;;;;;3.92;1.23;;;17.20;81.80;;;;;;5023410;28;20052;-74
2022/09/26 13:05:41;;;;;;;1.33;1.02;;;17.20;81.60;;;;;;5024316;28;20495;-74
2022/09/26 13:08:19;;;;;;;2.58;1.05;;;17.30;82.20;;;;;;5024536;28;20113;-75
2022/09/26 13:11:19;;;;;;;1.70;1.00;;;17.30;81.50;;;;;;5006847;28;20535;-74
2022/09/26 13:14:33;;;;;;;2.30;1.20;;;17.30;81.50;;;;;;5024852;28;20531;-75
2022/09/26 13:17:16;;;;;;;2.08;1.08;;;17.30;81.50;;;;;;5007002;28;20034;-74
2022/09/26 13:20:04;;;;;;;1.17;0.90;;;17.30;81.80;;;;;;5024743;28;20043;-74
2022/09/26 13:22:40;;;;;;;2.40;1.20;;;17.30;81.80;;;;;;5024897;28;20029;-74
2022/09/26 13:25:18;;;;;;;1.77;1.10;;;17.30;81.90;;;;;;5006438;28;20036;-75
2022/09/26 13:28:03;;;;;;;2.03;1.00;;;17.30;81.80;;;;;;5007910;28;20033;-74
2022/09/26 13:30:36;;;;;;;1.52;1.10;;;17.30;81.90;;;;;;5027633;28;20317;-74
2022/09/26 13:33:38;;;;;;;1.60;1.08;;;17.30;82.20;;;;;;5010970;28;20408;-75
2022/09/26 13:36:05;;;;;;;2.58;1.00;;;17.30;81.90;;;;;;5010874;28;20079;-74
2022/09/26 13:38:50;;;;;;;2.03;1.00;;;17.20;81.70;;;;;;5028892;28;20496;-74
2022/09/26 13:41:36;;;;;;;2.00;1.10;;;17.30;81.90;;;;;;5028202;28;20029;-75
2022/09/26 13:44:27;;;;;;;1.88;0.98;;;17.20;81.80;;;;;;5028549;28;20049;-74
2022/09/26 13:47:08;;;;;;;2.38;1.20;;;17.30;82.00;;;;;;5010534;28;20048;-75